Time;durP1;ratioP1;P1;durP2;ratioP2;P2;SDS_P1;SDS_P2;PMS_P1;PMS_P2;Temp;Humidity;BMP_temperature;BMP_pressure;BME280_temperature;BME280_humidity;BME280_pressure;Samples;Min_cycle;Max_cycle;Signal;HPM_P1;HPM_P2
2021/10/20 00:00:24;;;;;;;35.55;26.58;;;17.00;99.90;;;;;;5019872;28;20300;-61
2021/10/20 00:02:51;;;;;;;45.17;28.23;;;16.90;99.90;;;;;;5020356;28;20281;-61
2021/10/20 00:05:18;;;;;;;40.30;29.40;;;16.80;99.90;;;;;;5019549;28;20080;-61
2021/10/20 00:07:45;;;;;;;45.78;31.13;;;16.80;99.90;;;;;;5020459;28;20129;-61
2021/10/20 00:10:12;;;;;;;37.60;27.17;;;16.70;99.90;;;;;;5021507;28;20046;-61
2021/10/20 00:12:39;;;;;;;37.63;27.23;;;16.70;99.90;;;;;;5021249;28;20100;-61
2021/10/20 00:15:09;;;;;;;33.60;24.10;;;16.60;99.90;;;;;;5020501;28;20489;-61
2021/10/20 00:17:36;;;;;;;33.85;26.38;;;16.60;99.90;;;;;;5021157;28;20521;-61
2021/10/20 00:20:08;;;;;;;32.80;23.98;;;16.50;99.90;;;;;;5021764;28;20124;-61
2021/10/20 00:22:36;;;;;;;27.20;22.55;;;16.50;99.90;;;;;;5005992;28;20451;-61
2021/10/20 00:25:04;;;;;;;29.65;20.00;;;16.50;99.90;;;;;;5020764;28;20116;-61
2021/10/20 00:27:30;;;;;;;31.75;21.63;;;16.50;99.90;;;;;;5025231;28;20762;-61
2021/10/20 00:29:57;;;;;;;23.88;19.67;;;16.40;99.90;;;;;;5023841;28;20164;-61
2021/10/20 00:32:24;;;;;;;22.10;18.98;;;16.40;99.90;;;;;;5023658;28;20088;-61
2021/10/20 00:34:51;;;;;;;23.48;19.23;;;16.40;99.90;;;;;;5023141;28;20552;-61
2021/10/20 00:37:18;;;;;;;19.17;16.17;;;16.40;99.90;;;;;;5025121;28;20088;-61
2021/10/20 00:39:47;;;;;;;27.95;17.10;;;16.40;99.90;;;;;;5025218;28;20136;-60
2021/10/20 00:42:13;;;;;;;20.15;15.45;;;16.30;99.90;;;;;;5024729;28;20139;-62
2021/10/20 00:44:54;;;;;;;18.42;15.45;;;16.30;99.90;;;;;;5023153;28;20128;-61
2021/10/20 00:47:21;;;;;;;20.17;13.85;;;16.30;99.90;;;;;;5024682;28;20128;-61
2021/10/20 00:49:48;;;;;;;16.58;13.27;;;16.20;99.90;;;;;;5024262;28;20085;-61
2021/10/20 00:52:15;;;;;;;15.00;13.40;;;16.20;99.90;;;;;;5020862;28;20632;-61
2021/10/20 00:54:42;;;;;;;16.45;11.77;;;16.20;99.90;;;;;;5022353;28;20049;-61
2021/10/20 00:57:09;;;;;;;16.50;11.32;;;16.20;99.90;;;;;;5023732;28;20132;-61
2021/10/20 00:59:37;;;;;;;16.88;12.73;;;16.10;99.90;;;;;;5034117;28;20081;-61
2021/10/20 01:02:04;;;;;;;16.80;11.70;;;16.20;99.90;;;;;;5024277;28;20140;-61
2021/10/20 01:04:31;;;;;;;12.80;11.00;;;16.10;99.90;;;;;;5024183;28;20042;-61
2021/10/20 01:06:58;;;;;;;16.48;11.60;;;16.10;99.90;;;;;;5026026;28;20518;-61
2021/10/20 01:09:25;;;;;;;12.52;10.07;;;16.10;99.90;;;;;;5028343;28;20125;-61
2021/10/20 01:11:53;;;;;;;13.55;10.80;;;16.10;99.90;;;;;;5035644;28;20442;-61
2021/10/20 01:14:20;;;;;;;9.93;8.80;;;16.00;99.90;;;;;;5025028;28;20081;-61
2021/10/20 01:16:47;;;;;;;14.05;8.68;;;16.00;99.90;;;;;;5026972;28;20053;-61
2021/10/20 01:19:14;;;;;;;12.60;8.38;;;16.00;99.90;;;;;;5026774;28;20087;-61
2021/10/20 01:21:41;;;;;;;9.52;8.23;;;15.90;99.90;;;;;;5026334;28;20122;-60
2021/10/20 01:24:08;;;;;;;9.57;8.07;;;15.90;99.90;;;;;;5027896;28;20124;-61
2021/10/20 01:26:35;;;;;;;13.30;8.65;;;15.90;99.90;;;;;;5027446;28;20187;-61
2021/10/20 01:29:02;;;;;;;10.70;9.20;;;15.90;99.90;;;;;;5026404;28;20274;-61
2021/10/20 01:31:31;;;;;;;11.15;9.77;;;15.80;99.90;;;;;;5025133;28;20567;-61
2021/10/20 01:33:57;;;;;;;12.75;9.70;;;15.80;99.90;;;;;;5028503;28;20049;-60
2021/10/20 01:36:24;;;;;;;14.13;10.32;;;15.80;99.90;;;;;;5028146;28;20140;-61
2021/10/20 01:38:52;;;;;;;15.10;11.50;;;15.80;99.90;;;;;;5029350;28;20530;-61
2021/10/20 01:41:19;;;;;;;14.00;10.30;;;15.80;99.90;;;;;;5029735;28;20501;-61
2021/10/20 01:43:47;;;;;;;12.27;10.18;;;15.80;99.90;;;;;;5027278;28;20141;-61
2021/10/20 01:46:14;;;;;;;15.40;11.05;;;15.70;99.90;;;;;;5026961;28;20555;-61
2021/10/20 01:48:41;;;;;;;11.23;8.65;;;15.80;99.90;;;;;;5024632;28;20386;-61
2021/10/20 01:51:08;;;;;;;11.95;8.27;;;15.70;99.90;;;;;;5026367;28;20910;-60
2021/10/20 01:53:35;;;;;;;9.02;6.82;;;15.70;99.90;;;;;;5028999;28;20107;-61
2021/10/20 01:56:05;;;;;;;8.90;7.28;;;15.60;99.90;;;;;;5029626;28;20486;-60
2021/10/20 01:58:32;;;;;;;10.18;7.05;;;15.60;99.90;;;;;;5025059;28;21063;-60
2021/10/20 02:00:58;;;;;;;7.82;6.72;;;15.60;99.90;;;;;;5025767;28;20108;-61
2021/10/20 02:03:26;;;;;;;10.02;7.93;;;15.60;99.90;;;;;;5024919;28;20633;-61
2021/10/20 02:05:56;;;;;;;13.15;9.65;;;15.60;99.90;;;;;;5025790;28;20172;-61
2021/10/20 02:08:23;;;;;;;11.50;9.52;;;15.60;99.90;;;;;;5025613;28;20087;-61
2021/10/20 02:10:49;;;;;;;10.85;9.07;;;15.60;99.90;;;;;;5025632;28;20219;-61
2021/10/20 02:13:16;;;;;;;15.50;10.20;;;15.50;99.90;;;;;;5024075;28;20476;-62
2021/10/20 02:15:43;;;;;;;14.07;9.82;;;15.50;99.90;;;;;;5024082;28;20455;-61
2021/10/20 02:18:10;;;;;;;15.50;10.00;;;15.50;99.90;;;;;;5024422;28;20049;-61
2021/10/20 02:20:36;;;;;;;12.02;9.95;;;15.50;99.90;;;;;;5025563;28;20116;-59
2021/10/20 02:23:03;;;;;;;13.15;11.45;;;15.50;99.90;;;;;;5024021;28;20132;-60
2021/10/20 02:25:30;;;;;;;15.52;10.05;;;15.50;99.90;;;;;;5025576;28;20129;-60
2021/10/20 02:27:57;;;;;;;12.32;9.95;;;15.50;99.90;;;;;;5024804;28;20479;-61
2021/10/20 02:30:25;;;;;;;11.75;10.05;;;15.50;99.90;;;;;;5023368;28;20125;-60
2021/10/20 02:32:53;;;;;;;15.00;9.88;;;15.50;99.90;;;;;;5024126;28;20572;-61
2021/10/20 02:35:19;;;;;;;12.38;9.45;;;15.40;99.90;;;;;;5024750;28;20107;-60
2021/10/20 02:37:46;;;;;;;12.23;10.23;;;15.50;99.90;;;;;;5023696;28;20077;-60
2021/10/20 02:40:13;;;;;;;14.32;10.43;;;15.40;99.90;;;;;;5022673;28;20124;-60
2021/10/20 02:42:40;;;;;;;10.38;9.10;;;15.40;99.90;;;;;;5024003;28;20192;-60
2021/10/20 02:45:11;;;;;;;10.93;9.40;;;15.40;99.90;;;;;;5021787;28;20049;-60
2021/10/20 02:47:39;;;;;;;13.73;9.40;;;15.40;99.90;;;;;;5022603;28;20077;-61
2021/10/20 02:50:06;;;;;;;14.77;10.20;;;15.40;99.90;;;;;;5024040;28;20069;-61
2021/10/20 02:52:32;;;;;;;11.68;8.27;;;15.40;99.90;;;;;;5023265;28;20482;-61
2021/10/20 02:54:59;;;;;;;11.07;8.10;;;15.40;99.90;;;;;;5023752;28;20079;-61
2021/10/20 02:57:26;;;;;;;12.00;8.55;;;15.40;99.90;;;;;;5023668;28;20131;-62
2021/10/20 02:59:55;;;;;;;11.57;7.30;;;15.40;99.90;;;;;;5039680;28;20306;-60
2021/10/20 03:02:21;;;;;;;9.15;6.55;;;15.40;99.90;;;;;;5024326;28;20132;-61
2021/10/20 03:04:48;;;;;;;8.50;6.10;;;15.40;99.90;;;;;;5024276;28;20099;-61
2021/10/20 03:07:15;;;;;;;9.00;6.20;;;15.40;99.90;;;;;;5025592;28;20081;-61
2021/10/20 03:09:42;;;;;;;7.75;5.32;;;15.50;99.90;;;;;;5025038;28;20472;-61
2021/10/20 03:12:09;;;;;;;6.78;5.10;;;15.50;99.90;;;;;;5024770;28;20084;-60
2021/10/20 03:14:36;;;;;;;7.05;4.38;;;15.50;99.90;;;;;;5024533;28;20085;-60
2021/10/20 03:17:02;;;;;;;6.45;4.68;;;15.40;99.90;;;;;;5024132;28;20096;-61
2021/10/20 03:19:29;;;;;;;5.25;4.22;;;15.40;99.90;;;;;;5023624;28;20133;-61
2021/10/20 03:21:56;;;;;;;6.00;4.35;;;15.40;99.90;;;;;;5024941;28;20136;-61
2021/10/20 03:24:23;;;;;;;5.85;4.32;;;15.40;99.90;;;;;;5025177;28;20125;-61
2021/10/20 03:26:49;;;;;;;6.32;4.68;;;15.40;99.90;;;;;;5024489;28;20088;-61
2021/10/20 03:29:19;;;;;;;8.68;5.25;;;15.40;99.90;;;;;;5022623;28;20049;-61
2021/10/20 03:31:48;;;;;;;8.65;4.80;;;15.40;99.90;;;;;;5023832;28;20080;-60
2021/10/20 03:34:15;;;;;;;6.30;4.90;;;15.40;99.90;;;;;;5024407;28;20065;-61
2021/10/20 03:36:44;;;;;;;7.35;4.88;;;15.40;99.90;;;;;;5023970;28;20458;-60
2021/10/20 03:39:11;;;;;;;6.72;5.07;;;15.40;99.90;;;;;;5024332;28;20088;-61
2021/10/20 03:41:37;;;;;;;7.07;5.18;;;15.40;99.90;;;;;;5024692;28;20156;-61
2021/10/20 03:44:04;;;;;;;6.35;5.03;;;15.40;99.90;;;;;;5023543;28;20083;-61
2021/10/20 03:46:31;;;;;;;6.65;5.07;;;15.40;99.90;;;;;;5023085;28;20076;-61
2021/10/20 03:49:00;;;;;;;9.30;5.32;;;15.40;99.90;;;;;;5025799;28;20049;-61
2021/10/20 03:51:27;;;;;;;8.68;5.57;;;15.50;99.90;;;;;;5025907;28;20416;-61
2021/10/20 03:53:54;;;;;;;7.63;5.03;;;15.50;99.90;;;;;;5026263;28;20124;-61
2021/10/20 03:56:20;;;;;;;8.05;4.88;;;15.50;99.90;;;;;;5040964;28;20463;-61
2021/10/20 03:58:47;;;;;;;7.28;5.10;;;15.50;99.90;;;;;;5025267;28;20536;-61
2021/10/20 04:01:14;;;;;;;7.20;5.80;;;15.50;99.90;;;;;;5026331;28;20076;-61
2021/10/20 04:03:41;;;;;;;6.43;4.95;;;15.50;99.90;;;;;;5024947;28;20049;-61
2021/10/20 04:06:08;;;;;;;6.43;4.95;;;15.50;99.90;;;;;;5024414;28;20132;-61
2021/10/20 04:08:35;;;;;;;6.25;4.60;;;15.50;99.90;;;;;;5026007;28;20049;-61
2021/10/20 04:11:01;;;;;;;8.55;5.07;;;15.60;99.90;;;;;;5026256;28;20117;-61
2021/10/20 04:13:28;;;;;;;7.55;4.68;;;15.60;99.90;;;;;;5023445;28;20064;-61
2021/10/20 04:15:56;;;;;;;5.95;4.22;;;15.60;99.90;;;;;;5026316;28;20053;-61
2021/10/20 04:18:22;;;;;;;6.18;4.53;;;15.60;99.90;;;;;;5025275;28;20053;-61
2021/10/20 04:20:50;;;;;;;9.98;5.68;;;15.60;99.90;;;;;;5026330;28;20084;-61
2021/10/20 04:23:16;;;;;;;10.77;4.70;;;15.70;99.90;;;;;;5025776;28;20049;-61
2021/10/20 04:25:43;;;;;;;5.93;3.90;;;15.70;99.90;;;;;;5026187;28;20124;-61
2021/10/20 04:28:12;;;;;;;6.40;3.50;;;15.70;99.90;;;;;;5025048;28;20112;-61
2021/10/20 04:30:39;;;;;;;4.03;3.28;;;15.60;99.90;;;;;;5041769;28;20244;-61
2021/10/20 04:33:06;;;;;;;6.00;2.78;;;15.70;99.90;;;;;;5025280;28;20124;-61
2021/10/20 04:35:33;;;;;;;4.53;2.60;;;15.70;99.90;;;;;;5025543;28;20472;-61
2021/10/20 04:38:01;;;;;;;5.57;3.15;;;15.70;99.90;;;;;;5025619;28;20061;-61
2021/10/20 04:40:28;;;;;;;3.30;2.38;;;15.70;99.90;;;;;;5025887;28;20136;-61
2021/10/20 04:42:55;;;;;;;4.38;2.72;;;15.70;99.90;;;;;;5024127;28;20053;-61
2021/10/20 04:45:22;;;;;;;4.93;2.63;;;15.70;99.90;;;;;;5024908;28;20543;-61
2021/10/20 04:47:48;;;;;;;3.42;1.90;;;15.70;99.90;;;;;;5023770;28;20049;-61
2021/10/20 04:50:16;;;;;;;4.10;2.15;;;15.70;99.90;;;;;;5022957;28;20539;-61
2021/10/20 04:52:43;;;;;;;4.15;2.25;;;15.70;99.90;;;;;;5023323;28;20501;-61
2021/10/20 04:55:10;;;;;;;4.90;2.33;;;15.80;99.90;;;;;;5023021;28;20124;-61
2021/10/20 04:57:37;;;;;;;6.93;3.38;;;15.80;99.90;;;;;;5022984;28;20457;-62
2021/10/20 05:00:04;;;;;;;3.63;2.50;;;15.80;99.90;;;;;;5022619;28;20837;-61
2021/10/20 05:02:35;;;;;;;5.82;3.30;;;15.80;99.90;;;;;;5021138;28;20104;-62
2021/10/20 05:05:04;;;;;;;10.20;4.00;;;15.80;99.90;;;;;;5020836;28;20184;-61
2021/10/20 05:07:31;;;;;;;9.43;4.47;;;15.80;99.90;;;;;;5022487;28;20050;-61
2021/10/20 05:09:58;;;;;;;16.73;4.85;;;15.80;99.90;;;;;;5022625;28;20053;-59
2021/10/20 05:12:24;;;;;;;16.20;5.05;;;15.80;99.90;;;;;;5021517;28;20061;-61
2021/10/20 05:14:51;;;;;;;13.13;5.00;;;15.80;99.90;;;;;;5021441;28;20112;-61
2021/10/20 05:17:18;;;;;;;12.13;5.40;;;15.70;99.90;;;;;;5020940;28;20164;-61
2021/10/20 05:19:45;;;;;;;9.25;5.72;;;15.70;99.90;;;;;;5020873;28;20485;-61
2021/10/20 05:22:11;;;;;;;9.82;5.05;;;15.70;99.90;;;;;;5020937;28;20137;-61
2021/10/20 05:24:38;;;;;;;11.00;5.57;;;15.70;99.90;;;;;;5020156;28;20840;-61
2021/10/20 05:27:06;;;;;;;9.25;4.75;;;15.70;99.90;;;;;;5020368;28;20132;-61
2021/10/20 05:29:37;;;;;;;14.38;4.45;;;15.70;99.90;;;;;;5020037;28;20164;-61
2021/10/20 05:32:04;;;;;;;11.65;4.72;;;15.70;99.90;;;;;;5026557;28;20160;-61
2021/10/20 05:34:30;;;;;;;10.15;5.63;;;15.70;99.90;;;;;;5020595;28;20077;-61
2021/10/20 05:36:57;;;;;;;11.10;5.22;;;15.70;99.90;;;;;;5019982;28;20137;-61
2021/10/20 05:39:27;;;;;;;11.65;5.03;;;15.70;99.90;;;;;;5019804;28;20551;-61
2021/10/20 05:41:56;;;;;;;14.65;5.63;;;15.70;99.90;;;;;;5020581;28;20108;-61
2021/10/20 05:44:23;;;;;;;11.70;4.88;;;15.70;99.90;;;;;;5019401;28;20141;-61
2021/10/20 05:46:50;;;;;;;11.88;5.80;;;15.70;99.90;;;;;;5019729;28;20969;-61
2021/10/20 05:49:16;;;;;;;9.80;5.50;;;15.70;99.90;;;;;;5020024;28;20548;-61
2021/10/20 05:51:44;;;;;;;9.20;4.47;;;15.70;99.90;;;;;;5018885;28;20204;-62
2021/10/20 05:54:11;;;;;;;11.35;4.28;;;15.70;99.90;;;;;;5020373;28;20128;-61
2021/10/20 05:56:38;;;;;;;11.98;5.22;;;15.70;99.90;;;;;;5020332;28;20128;-61
2021/10/20 05:59:05;;;;;;;8.35;4.32;;;15.70;99.90;;;;;;5019491;28;20148;-61
2021/10/20 06:01:34;;;;;;;10.82;4.50;;;15.80;99.90;;;;;;5019593;28;20544;-61
2021/10/20 06:04:01;;;;;;;12.10;4.75;;;15.80;99.90;;;;;;5026525;28;20053;-61
2021/10/20 06:06:27;;;;;;;12.75;4.68;;;15.80;99.90;;;;;;5018706;28;20045;-61
2021/10/20 06:08:54;;;;;;;11.07;4.25;;;15.80;99.90;;;;;;5020148;28;20092;-60
2021/10/20 06:11:21;;;;;;;8.18;4.72;;;15.80;99.90;;;;;;5019705;28;20053;-61
2021/10/20 06:13:48;;;;;;;10.80;4.85;;;15.80;99.90;;;;;;5018007;28;20878;-59
2021/10/20 06:16:15;;;;;;;14.35;5.28;;;15.80;99.90;;;;;;5019408;28;20128;-58
2021/10/20 06:18:44;;;;;;;13.88;4.10;;;15.90;99.90;;;;;;5019132;28;20053;-61
2021/10/20 06:21:11;;;;;;;9.50;4.47;;;15.90;99.90;;;;;;5020533;28;20049;-62
2021/10/20 06:23:37;;;;;;;9.27;3.88;;;15.90;99.90;;;;;;5018262;28;20081;-61
2021/10/20 06:26:04;;;;;;;7.93;3.88;;;15.90;99.90;;;;;;5019111;28;20555;-61
2021/10/20 06:28:33;;;;;;;6.65;3.90;;;15.90;99.90;;;;;;5018267;28;20136;-61
2021/10/20 06:31:00;;;;;;;10.23;3.72;;;15.90;99.90;;;;;;5019463;28;20501;-62
2021/10/20 06:33:27;;;;;;;9.55;3.20;;;15.90;99.90;;;;;;5017642;28;20058;-61
2021/10/20 06:35:57;;;;;;;5.78;2.92;;;16.00;99.90;;;;;;5018814;28;20057;-61
2021/10/20 06:38:24;;;;;;;7.13;2.85;;;16.00;99.90;;;;;;5018341;28;20623;-61
2021/10/20 06:40:50;;;;;;;7.07;3.45;;;15.90;99.90;;;;;;5019072;28;20085;-61
2021/10/20 06:43:17;;;;;;;8.18;3.75;;;15.90;99.90;;;;;;5016646;28;20132;-61
2021/10/20 06:45:49;;;;;;;8.65;3.22;;;16.00;99.90;;;;;;5020353;28;20084;-61
2021/10/20 06:48:16;;;;;;;6.85;3.38;;;15.90;99.90;;;;;;5014786;28;20051;-61
2021/10/20 06:50:43;;;;;;;7.85;3.58;;;15.90;99.90;;;;;;5015642;28;20045;-58
2021/10/20 06:53:10;;;;;;;8.55;3.50;;;16.00;99.90;;;;;;5013836;28;20165;-58
2021/10/20 06:55:36;;;;;;;6.88;3.88;;;16.00;99.90;;;;;;5017672;28;20129;-59
2021/10/20 06:58:08;;;;;;;6.57;3.35;;;15.90;99.90;;;;;;5015333;28;20096;-58
2021/10/20 07:00:37;;;;;;;11.68;4.13;;;16.00;99.90;;;;;;5018105;28;20135;-58
2021/10/20 07:03:04;;;;;;;6.50;3.33;;;16.00;99.90;;;;;;5016825;28;20131;-59
2021/10/20 07:05:31;;;;;;;12.30;3.80;;;16.00;99.90;;;;;;5018493;28;20045;-58
2021/10/20 07:07:57;;;;;;;7.43;3.50;;;16.10;99.90;;;;;;5018051;28;20053;-59
2021/10/20 07:10:24;;;;;;;5.38;3.25;;;16.00;99.90;;;;;;5018848;28;20053;-59
2021/10/20 07:12:51;;;;;;;8.27;3.05;;;16.10;99.90;;;;;;5017809;28;20065;-58
2021/10/20 07:15:21;;;;;;;5.95;3.40;;;16.10;99.90;;;;;;5018584;28;20136;-58
2021/10/20 07:17:49;;;;;;;7.28;3.85;;;16.00;99.90;;;;;;5018701;28;20068;-58
2021/10/20 07:20:16;;;;;;;6.47;3.45;;;16.00;99.90;;;;;;5018590;28;20041;-58
2021/10/20 07:22:44;;;;;;;11.88;3.70;;;16.00;99.90;;;;;;5019196;28;20148;-58
2021/10/20 07:25:13;;;;;;;12.95;3.90;;;16.00;99.90;;;;;;5017164;28;20045;-58
2021/10/20 07:27:40;;;;;;;8.02;4.30;;;16.00;99.90;;;;;;5018160;28;20133;-59
2021/10/20 07:30:07;;;;;;;8.82;4.10;;;16.00;99.90;;;;;;5016522;28;20053;-59
2021/10/20 07:32:39;;;;;;;8.73;3.90;;;16.00;99.90;;;;;;5016194;28;20069;-59
2021/10/20 07:35:12;;;;;;;14.63;3.90;;;16.00;99.90;;;;;;5016618;28;20091;-59
2021/10/20 07:37:42;;;;;;;8.82;4.07;;;16.00;99.90;;;;;;5017805;28;20077;-59
2021/10/20 07:40:10;;;;;;;13.35;4.50;;;16.00;99.90;;;;;;5017311;28;20385;-59
2021/10/20 07:42:37;;;;;;;12.40;4.85;;;16.10;99.90;;;;;;5013354;28;20104;-59
2021/10/20 07:45:05;;;;;;;10.70;4.35;;;16.00;99.90;;;;;;5016522;28;20152;-59
2021/10/20 07:47:32;;;;;;;13.40;3.88;;;16.10;99.90;;;;;;5015370;28;20538;-59
2021/10/20 07:49:59;;;;;;;14.60;4.53;;;16.10;99.90;;;;;;5016299;28;20141;-59
2021/10/20 07:52:28;;;;;;;9.50;4.78;;;16.10;99.90;;;;;;5014052;28;20099;-58
2021/10/20 07:54:55;;;;;;;14.05;4.50;;;16.10;99.90;;;;;;5017631;28;20136;-59
2021/10/20 07:57:22;;;;;;;12.43;4.32;;;16.10;99.90;;;;;;5017339;28;20041;-59
2021/10/20 07:59:49;;;;;;;10.82;4.05;;;16.10;99.90;;;;;;5016889;28;20053;-59
2021/10/20 08:02:16;;;;;;;13.85;4.55;;;16.00;99.90;;;;;;5016795;28;20042;-59
2021/10/20 08:04:43;;;;;;;12.43;4.93;;;16.00;99.90;;;;;;5017114;28;20536;-59
2021/10/20 08:07:09;;;;;;;10.85;4.40;;;16.00;99.90;;;;;;5016351;28;20160;-59
2021/10/20 08:09:39;;;;;;;15.07;3.90;;;16.00;99.90;;;;;;5018265;28;20147;-59
2021/10/20 08:12:05;;;;;;;10.30;3.80;;;16.10;99.90;;;;;;5014432;28;20077;-59
2021/10/20 08:14:33;;;;;;;10.93;4.00;;;16.10;99.90;;;;;;5017151;28;20073;-59
2021/10/20 08:17:00;;;;;;;10.10;3.72;;;16.10;99.90;;;;;;5017237;28;20136;-59
2021/10/20 08:19:27;;;;;;;12.77;4.13;;;16.10;99.90;;;;;;5016010;28;20053;-59
2021/10/20 08:21:54;;;;;;;10.18;4.28;;;16.10;99.90;;;;;;5017407;28;20068;-59
2021/10/20 08:24:25;;;;;;;14.93;4.45;;;16.20;99.90;;;;;;5017025;28;20152;-59
2021/10/20 08:26:52;;;;;;;11.25;3.53;;;16.20;99.90;;;;;;5017104;28;20053;-59
2021/10/20 08:29:19;;;;;;;10.13;3.53;;;16.20;99.90;;;;;;5015698;28;20088;-59
2021/10/20 08:31:48;;;;;;;15.43;4.05;;;16.20;99.90;;;;;;5017037;28;20046;-58
2021/10/20 08:34:15;;;;;;;9.23;3.80;;;16.20;99.90;;;;;;5023870;28;20057;-59
2021/10/20 08:36:42;;;;;;;7.68;3.47;;;16.20;99.90;;;;;;5016207;28;20107;-59
2021/10/20 08:39:09;;;;;;;17.35;4.00;;;16.20;99.90;;;;;;5017628;28;20437;-59
2021/10/20 08:41:35;;;;;;;15.32;4.00;;;16.30;99.90;;;;;;5019716;28;20110;-58
2021/10/20 08:44:04;;;;;;;9.63;3.08;;;16.30;99.40;;;;;;5020395;28;20125;-58
2021/10/20 08:46:32;;;;;;;12.82;4.07;;;16.30;99.60;;;;;;5020359;28;20476;-58
2021/10/20 08:49:00;;;;;;;16.10;3.72;;;16.40;99.30;;;;;;5020006;28;20053;-59
2021/10/20 08:51:27;;;;;;;10.38;3.33;;;16.40;99.70;;;;;;5020517;28;20138;-59
2021/10/20 08:53:56;;;;;;;12.45;3.80;;;16.40;99.40;;;;;;5019344;28;20150;-59
2021/10/20 08:56:25;;;;;;;11.52;3.80;;;16.40;99.40;;;;;;5021754;28;20072;-59
2021/10/20 08:58:51;;;;;;;14.63;4.32;;;16.40;99.50;;;;;;5018850;28;20147;-59
2021/10/20 09:01:22;;;;;;;12.38;3.85;;;16.40;99.20;;;;;;5022078;28;20081;-58
2021/10/20 09:03:54;;;;;;;13.63;3.78;;;16.40;99.00;;;;;;5020654;28;20506;-59
2021/10/20 09:06:21;;;;;;;13.63;4.45;;;16.40;99.50;;;;;;5021447;28;20061;-59
2021/10/20 09:08:48;;;;;;;15.43;3.80;;;16.50;99.40;;;;;;5003305;28;20128;-59
2021/10/20 09:11:33;;;;;;;11.02;3.10;;;16.50;99.70;;;;;;5022925;28;20111;-59
2021/10/20 09:14:22;;;;;;;17.38;4.70;;;16.50;99.20;;;;;;5020474;28;20543;-59
2021/10/20 09:16:49;;;;;;;11.93;3.55;;;16.50;99.00;;;;;;5027836;28;20568;-59
2021/10/20 09:19:31;;;;;;;20.70;4.55;;;16.50;99.30;;;;;;5022129;28;20077;-59
2021/10/20 09:22:03;;;;;;;14.00;3.80;;;16.60;99.10;;;;;;5019591;28;20095;-59
2021/10/20 09:24:37;;;;;;;14.38;4.63;;;16.60;99.00;;;;;;5020899;28;20050;-59
2021/10/20 09:27:05;;;;;;;17.58;4.00;;;16.60;99.00;;;;;;5008708;28;20065;-59
2021/10/20 09:29:33;;;;;;;18.63;5.03;;;16.70;99.20;;;;;;5003868;28;20638;-59
2021/10/20 09:32:00;;;;;;;17.83;4.68;;;16.70;99.00;;;;;;5020385;28;20059;-59
2021/10/20 09:34:34;;;;;;;21.77;4.47;;;16.70;99.00;;;;;;5022047;28;20050;-58
2021/10/20 09:37:03;;;;;;;12.25;3.78;;;16.70;98.90;;;;;;5022742;28;20124;-59
2021/10/20 09:39:30;;;;;;;15.02;4.75;;;16.70;98.80;;;;;;5022555;28;20168;-59
2021/10/20 09:42:12;;;;;;;15.00;3.97;;;16.80;98.20;;;;;;5022191;28;20085;-59
2021/10/20 09:44:49;;;;;;;11.40;3.53;;;16.80;97.90;;;;;;5023254;28;20262;-59
2021/10/20 09:47:18;;;;;;;22.42;4.45;;;16.80;98.30;;;;;;5022828;28;20369;-59
2021/10/20 09:49:54;;;;;;;16.00;4.05;;;16.90;98.40;;;;;;5005292;28;20041;-59
2021/10/20 09:52:24;;;;;;;15.23;3.75;;;16.80;98.30;;;;;;5017790;28;20573;-59
2021/10/20 09:54:50;;;;;;;19.50;3.78;;;16.80;98.30;;;;;;5023799;28;20085;-59
2021/10/20 09:57:20;;;;;;;20.13;5.47;;;16.90;98.30;;;;;;5022914;28;20085;-59
2021/10/20 09:59:47;;;;;;;14.75;3.70;;;16.80;98.30;;;;;;5019152;28;20108;-59
2021/10/20 10:02:13;;;;;;;18.73;5.03;;;16.80;98.10;;;;;;5023147;28;20087;-59
2021/10/20 10:04:42;;;;;;;13.60;4.90;;;16.80;97.90;;;;;;5022604;28;20053;-59
2021/10/20 10:07:09;;;;;;;17.10;5.13;;;16.80;98.10;;;;;;5022255;28;20073;-59
2021/10/20 10:09:36;;;;;;;15.10;3.78;;;16.70;98.00;;;;;;5023277;28;20132;-59
2021/10/20 10:12:09;;;;;;;14.95;4.28;;;16.70;97.90;;;;;;5021802;28;20046;-59
2021/10/20 10:14:41;;;;;;;12.75;4.10;;;16.90;98.00;;;;;;5020380;28;20073;-59
2021/10/20 10:17:08;;;;;;;10.60;3.15;;;17.00;98.40;;;;;;5002746;28;20104;-59
2021/10/20 10:19:37;;;;;;;15.05;3.53;;;17.10;98.50;;;;;;5021113;28;20053;-59
2021/10/20 10:22:26;;;;;;;19.30;4.25;;;17.20;97.70;;;;;;5021391;28;20128;-59
2021/10/20 10:24:59;;;;;;;22.38;4.80;;;17.30;97.10;;;;;;5017992;28;20049;-59
2021/10/20 10:27:29;;;;;;;11.45;3.55;;;17.40;97.30;;;;;;5022455;28;20076;-59
2021/10/20 10:30:05;;;;;;;17.08;4.43;;;17.50;97.40;;;;;;5022615;28;20556;-59
2021/10/20 10:32:47;;;;;;;18.15;3.72;;;17.50;96.10;;;;;;5020980;28;20042;-59
2021/10/20 10:35:14;;;;;;;13.65;4.20;;;17.50;95.60;;;;;;5022264;28;20254;-58
2021/10/20 10:37:43;;;;;;;12.90;3.67;;;17.50;96.30;;;;;;5021548;28;20107;-58
2021/10/20 10:40:24;;;;;;;14.77;3.97;;;17.60;95.50;;;;;;5021675;28;20050;-58
2021/10/20 10:42:51;;;;;;;15.82;3.67;;;17.60;95.30;;;;;;5020260;28;20361;-59
2021/10/20 10:45:23;;;;;;;16.17;4.63;;;17.60;94.80;;;;;;5020311;28;20054;-58
2021/10/20 10:47:57;;;;;;;13.30;3.80;;;17.50;95.70;;;;;;5021921;28;20049;-58
2021/10/20 10:50:39;;;;;;;15.48;4.18;;;17.50;94.40;;;;;;5022022;28;20291;-58
2021/10/20 10:53:06;;;;;;;15.45;4.43;;;17.50;93.80;;;;;;5021906;28;20050;-60
2021/10/20 10:55:33;;;;;;;20.02;4.20;;;17.50;95.00;;;;;;5022222;28;20049;-59
2021/10/20 10:58:01;;;;;;;15.00;3.80;;;17.60;95.00;;;;;;5020292;28;20049;-59
2021/10/20 11:00:45;;;;;;;14.02;4.05;;;17.50;95.10;;;;;;5020780;28;20631;-59
2021/10/20 11:03:16;;;;;;;17.23;4.20;;;17.50;93.40;;;;;;5013430;28;20069;-59
2021/10/20 11:05:53;;;;;;;15.95;3.40;;;17.70;93.60;;;;;;5020816;28;20072;-59
2021/10/20 11:08:20;;;;;;;13.70;3.42;;;17.80;93.80;;;;;;5019100;28;20085;-59
2021/10/20 11:10:47;;;;;;;14.48;3.40;;;17.90;92.90;;;;;;5017918;28;20081;-59
2021/10/20 11:13:16;;;;;;;17.10;3.20;;;17.80;93.80;;;;;;5019766;28;20073;-59
2021/10/20 11:15:44;;;;;;;15.73;4.38;;;17.70;93.80;;;;;;5019134;28;20076;-58
2021/10/20 11:18:11;;;;;;;21.50;4.53;;;17.90;94.10;;;;;;5019074;28;20468;-59
2021/10/20 11:20:42;;;;;;;17.23;3.70;;;18.00;93.50;;;;;;5021940;28;20132;-58
2021/10/20 11:23:12;;;;;;;15.32;3.42;;;18.10;92.30;;;;;;5020712;28;20076;-59
2021/10/20 11:25:43;;;;;;;15.10;3.67;;;18.20;92.50;;;;;;5021002;28;20139;-58
2021/10/20 11:28:10;;;;;;;15.88;3.55;;;18.10;91.40;;;;;;5020722;28;20098;-58
2021/10/20 11:30:37;;;;;;;21.42;3.65;;;17.90;92.60;;;;;;5014907;28;20143;-59
2021/10/20 11:33:17;;;;;;;16.13;3.78;;;17.90;93.10;;;;;;5020944;28;20053;-58
2021/10/20 11:35:44;;;;;;;23.40;4.68;;;17.80;93.60;;;;;;5005845;28;20127;-59
2021/10/20 11:38:12;;;;;;;17.15;3.20;;;17.80;95.80;;;;;;5019173;28;20077;-58
2021/10/20 11:40:40;;;;;;;16.70;4.53;;;17.60;95.20;;;;;;5021758;28;20045;-58
2021/10/20 11:43:33;;;;;;;20.35;4.75;;;17.30;96.30;;;;;;5016698;28;20140;-58
2021/10/20 11:46:02;;;;;;;14.80;3.65;;;17.00;96.80;;;;;;5020817;28;20093;-59
2021/10/20 11:48:28;;;;;;;15.52;4.22;;;16.80;96.60;;;;;;5020019;28;20049;-59
2021/10/20 11:51:01;;;;;;;17.98;3.67;;;16.70;97.00;;;;;;5021370;28;20060;-60
2021/10/20 11:53:28;;;;;;;15.15;3.60;;;16.70;97.40;;;;;;5021885;28;20049;-58
2021/10/20 11:55:58;;;;;;;18.85;4.60;;;16.70;97.10;;;;;;5021880;28;20049;-59
2021/10/20 11:58:26;;;;;;;14.10;3.88;;;16.60;96.50;;;;;;5018926;28;20049;-59
2021/10/20 12:01:00;;;;;;;14.50;3.55;;;16.60;96.80;;;;;;5021411;28;20132;-58
2021/10/20 12:03:34;;;;;;;16.98;3.75;;;16.50;96.00;;;;;;5020181;28;20092;-58
2021/10/20 12:06:07;;;;;;;16.27;4.18;;;16.60;95.10;;;;;;5020778;28;20052;-58
2021/10/20 12:08:35;;;;;;;14.60;3.67;;;16.70;94.50;;;;;;5018365;28;20056;-58
2021/10/20 12:11:02;;;;;;;14.05;3.22;;;17.10;93.60;;;;;;5019301;28;20080;-58
2021/10/20 12:13:29;;;;;;;20.25;3.50;;;17.40;93.90;;;;;;5016568;28;20854;-59
2021/10/20 12:15:57;;;;;;;12.20;2.90;;;17.40;92.40;;;;;;5022295;28;20623;-59
2021/10/20 12:18:26;;;;;;;11.65;2.90;;;17.70;90.20;;;;;;5026556;28;20067;-59
2021/10/20 12:21:00;;;;;;;11.65;2.67;;;18.10;90.20;;;;;;5026638;28;20107;-59
2021/10/20 12:23:33;;;;;;;11.20;3.05;;;18.40;88.30;;;;;;5026107;28;21084;-59
2021/10/20 12:26:05;;;;;;;9.50;2.83;;;18.60;86.50;;;;;;5023817;28;20052;-59
2021/10/20 12:28:37;;;;;;;9.15;1.92;;;18.70;85.70;;;;;;5026631;28;20133;-59
2021/10/20 12:31:12;;;;;;;8.45;1.88;;;19.00;86.10;;;;;;5026156;28;20179;-59
2021/10/20 12:33:44;;;;;;;9.25;3.38;;;19.30;80.70;;;;;;5026975;28;20504;-59
2021/10/20 12:36:16;;;;;;;6.38;1.85;;;19.50;84.30;;;;;;5026636;28;20488;-59
2021/10/20 12:38:46;;;;;;;10.17;2.00;;;19.80;78.40;;;;;;5027408;28;20107;-59
2021/10/20 12:41:14;;;;;;;9.15;2.15;;;19.90;75.90;;;;;;5026301;28;20053;-59
2021/10/20 12:43:47;;;;;;;8.35;2.05;;;20.10;77.50;;;;;;5026191;28;20539;-58